Time;durP1;ratioP1;P1;durP2;ratioP2;P2;SDS_P1;SDS_P2;PMS_P1;PMS_P2;Temp;Humidity;BMP_temperature;BMP_pressure;BME280_temperature;BME280_humidity;BME280_pressure;Samples;Min_cycle;Max_cycle;Signal;HPM_P1;HPM_P2
2023/11/13 00:01:46;;;;;;;11.65;7.97;;;;;;;8.97;74.50;99292.94;6193446;23;20005;-90
2023/11/13 00:04:11;;;;;;;12.85;7.75;;;;;;;9.01;74.33;99302.88;6193019;23;19997;-90
2023/11/13 00:06:37;;;;;;;10.98;7.20;;;;;;;9.00;74.50;99298.56;6193460;23;20004;-89
2023/11/13 00:09:04;;;;;;;13.10;7.00;;;;;;;9.14;74.43;99316.94;6194123;23;20001;-89
2023/11/13 00:11:29;;;;;;;9.80;7.10;;;;;;;9.22;74.05;99333.34;6194000;23;19997;-89
2023/11/13 00:13:56;;;;;;;10.52;6.95;;;;;;;9.16;75.51;99330.91;6192965;23;20474;-90
2023/11/13 00:16:21;;;;;;;13.38;7.03;;;;;;;9.09;75.79;99329.25;6220003;23;20439;-89
2023/11/13 00:18:47;;;;;;;11.55;6.75;;;;;;;9.10;76.39;99344.28;6193079;23;20060;-90
2023/11/13 00:21:16;;;;;;;10.48;6.90;;;;;;;8.97;76.06;99333.22;6192713;23;20427;-89
2023/11/13 00:23:44;;;;;;;10.35;7.00;;;;;;;8.96;76.46;99329.69;6194331;23;20324;-88
2023/11/13 00:26:12;;;;;;;9.18;6.25;;;;;;;8.95;77.12;99327.28;6167820;23;20000;-89
2023/11/13 00:28:41;;;;;;;12.68;7.50;;;;;;;8.88;76.97;99309.53;6191611;23;20067;-89
2023/11/13 00:31:06;;;;;;;12.52;6.85;;;;;;;8.85;77.25;99303.84;6168155;23;20351;-88
2023/11/13 00:33:32;;;;;;;11.98;7.03;;;;;;;8.92;77.99;99322.41;6193755;23;20005;-90
2023/11/13 00:35:57;;;;;;;14.02;6.93;;;;;;;8.93;77.70;99322.16;6167909;23;20000;-89
2023/11/13 00:38:23;;;;;;;11.82;6.47;;;;;;;8.87;78.58;99323.19;6192910;23;20017;-90
2023/11/13 00:40:48;;;;;;;10.55;6.47;;;;;;;8.88;78.30;99322.94;6167908;23;20079;-89
2023/11/13 00:43:14;;;;;;;11.80;7.72;;;;;;;8.87;78.58;99315.16;6193107;23;20007;-89
2023/11/13 00:45:40;;;;;;;11.68;7.60;;;;;;;8.92;78.72;99328.59;6168235;23;19992;-90
2023/11/13 00:48:05;;;;;;;14.68;7.55;;;;;;;8.84;78.97;99313.81;6167453;23;19996;-89
2023/11/13 00:50:31;;;;;;;13.85;7.40;;;;;;;8.87;79.42;99337.44;6167963;23;20012;-89
2023/11/13 00:52:57;;;;;;;7.90;5.50;;;;;;;8.61;80.12;99322.19;6192525;23;20084;-89
2023/11/13 00:55:23;;;;;;;8.05;5.25;;;;;;;8.64;79.52;99325.19;6193053;23;20442;-89
2023/11/13 00:57:49;;;;;;;8.45;5.40;;;;;;;8.67;79.77;99345.31;6167094;23;20025;-89
2023/11/13 01:00:15;;;;;;;6.85;4.65;;;;;;;8.55;79.24;99326.75;6167544;23;20007;-88
2023/11/13 01:02:40;;;;;;;6.60;4.72;;;;;;;8.66;79.25;99339.16;6167080;23;20060;-90
2023/11/13 01:05:06;;;;;;;8.23;4.93;;;;;;;8.77;78.57;99345.41;6192160;23;20008;-90
2023/11/13 01:07:33;;;;;;;8.77;5.10;;;;;;;8.54;77.95;99316.25;6191893;23;20399;-89
2023/11/13 01:09:58;;;;;;;9.15;4.88;;;;;;;8.68;77.71;99328.19;6192112;23;20071;-90
2023/11/13 01:12:24;;;;;;;7.93;4.65;;;;;;;8.66;77.38;99323.06;6167190;23;20004;-89
2023/11/13 01:14:50;;;;;;;9.38;4.72;;;;;;;8.74;76.98;99329.84;6191475;23;20066;-89
2023/11/13 01:17:16;;;;;;;10.23;5.78;;;;;;;8.67;76.85;99327.38;6167137;23;20038;-89
2023/11/13 01:19:41;;;;;;;6.97;4.32;;;;;;;8.56;77.17;99306.88;6192785;23;20443;-90
2023/11/13 01:22:07;;;;;;;9.27;4.72;;;;;;;8.47;77.86;99300.38;6192268;23;20343;-89
2023/11/13 01:24:32;;;;;;;7.18;4.95;;;;;;;8.49;78.12;99317.81;6191801;23;19996;-90
2023/11/13 01:26:58;;;;;;;10.35;6.28;;;;;;;8.59;77.94;99338.59;6217008;23;20000;-90
2023/11/13 01:29:23;;;;;;;7.25;5.10;;;;;;;8.62;78.33;99338.06;6192949;23;20004;-89
2023/11/13 01:31:49;;;;;;;11.90;7.03;;;;;;;8.62;78.50;99327.31;6218410;23;19997;-89
2023/11/13 01:34:15;;;;;;;9.52;6.30;;;;;;;8.57;78.96;99323.78;6166388;23;20013;-90
2023/11/13 01:36:44;;;;;;;12.93;7.47;;;;;;;8.47;78.98;99324.53;6216506;23;20031;-89
2023/11/13 01:39:10;;;;;;;13.43;8.15;;;;;;;8.51;78.93;99333.69;6191562;23;20016;-89
2023/11/13 01:41:36;;;;;;;13.38;7.88;;;;;;;8.45;78.78;99319.41;6192205;23;20004;-88
2023/11/13 01:44:05;;;;;;;12.00;7.45;;;;;;;8.39;78.59;99306.19;6191695;23;20390;-89
2023/11/13 01:46:31;;;;;;;11.43;8.13;;;;;;;8.42;78.40;99316.41;6166370;23;20065;-89
2023/11/13 01:48:57;;;;;;;11.38;7.63;;;;;;;8.47;79.05;99316.47;6191991;23;20004;-88
2023/11/13 01:51:28;;;;;;;12.40;8.55;;;;;;;8.49;78.33;99322.41;6192003;23;20000;-88
2023/11/13 01:53:54;;;;;;;13.77;9.18;;;;;;;8.28;78.17;99300.72;6192543;23;20008;-90
2023/11/13 01:56:20;;;;;;;16.80;9.50;;;;;;;8.32;77.96;99308.25;6166529;23;20008;-90
2023/11/13 01:58:46;;;;;;;19.58;9.38;;;;;;;8.58;78.70;99347.69;6191531;23;20427;-89
2023/11/13 02:01:12;;;;;;;14.65;7.55;;;;;;;8.41;80.15;99315.63;6192017;23;20505;-91
2023/11/13 02:03:39;;;;;;;15.25;8.65;;;;;;;8.38;80.03;99313.38;6191934;23;20420;-89
2023/11/13 02:06:06;;;;;;;12.77;7.35;;;;;;;8.37;80.32;99308.31;6191658;23;20012;-89
2023/11/13 02:08:31;;;;;;;10.38;6.68;;;;;;;8.24;80.04;99290.75;6192516;23;19996;-89
2023/11/13 02:10:57;;;;;;;11.73;6.97;;;;;;;8.26;80.65;99304.72;6192235;23;20000;-89
2023/11/13 02:13:22;;;;;;;12.07;7.43;;;;;;;8.21;80.64;99288.56;6165957;23;20474;-89
2023/11/13 02:15:48;;;;;;;9.48;6.57;;;;;;;8.15;80.65;99278.88;6192112;23;20384;-89
2023/11/13 02:18:14;;;;;;;13.40;7.30;;;;;;;8.12;80.97;99271.34;6191712;23;20009;-89
2023/11/13 02:20:41;;;;;;;10.70;7.32;;;;;;;8.10;80.29;99267.03;6191224;23;20347;-90
2023/11/13 02:23:06;;;;;;;11.23;6.88;;;;;;;8.20;80.54;99281.59;6166164;23;20339;-89
2023/11/13 02:25:36;;;;;;;11.52;6.95;;;;;;;8.03;80.75;99279.00;6191421;23;20032;-90
2023/11/13 02:28:02;;;;;;;11.93;7.30;;;;;;;8.14;79.95;99294.16;6192809;23;20001;-89
2023/11/13 02:30:27;;;;;;;8.65;6.50;;;;;;;8.19;79.77;99296.88;6191449;23;19996;-89
2023/11/13 02:32:53;;;;;;;10.73;6.93;;;;;;;8.05;80.26;99277.72;6191073;23;20000;-90
2023/11/13 02:35:18;;;;;;;10.65;6.40;;;;;;;8.30;79.31;99309.31;6191772;23;20324;-90
2023/11/13 02:37:44;;;;;;;9.70;6.80;;;;;;;8.24;79.34;99298.81;6191318;23;20000;-89
2023/11/13 02:40:10;;;;;;;8.32;6.55;;;;;;;8.20;79.98;99306.56;6167499;23;20000;-89
2023/11/13 02:42:37;;;;;;;10.68;6.57;;;;;;;8.16;79.72;99288.53;6166200;23;19996;-89
2023/11/13 02:45:03;;;;;;;10.63;6.13;;;;;;;8.26;80.17;99307.41;6166983;23;20018;-90
2023/11/13 02:47:29;;;;;;;9.90;5.95;;;;;;;8.25;80.91;99311.13;6166924;23;20058;-89
2023/11/13 02:49:55;;;;;;;10.88;6.63;;;;;;;8.11;81.43;99302.69;6166082;23;20012;-89
2023/11/13 02:52:21;;;;;;;9.98;6.65;;;;;;;8.05;81.49;99301.84;6141295;23;20004;-90
2023/11/13 02:54:48;;;;;;;8.38;6.38;;;;;;;8.15;80.92;99311.84;6167258;23;20375;-89
2023/11/13 02:57:13;;;;;;;8.63;6.35;;;;;;;8.25;80.75;99322.69;6145905;23;20001;-95
2023/11/13 02:59:41;;;;;;;9.38;6.38;;;;;;;8.13;80.69;99300.56;6169703;23;20084;-96
2023/11/13 03:02:07;;;;;;;10.45;7.78;;;;;;;8.08;80.53;99285.25;6168635;23;20023;-95
2023/11/13 03:04:32;;;;;;;10.77;6.63;;;;;;;8.23;80.44;99306.03;6145306;23;20001;-96
2023/11/13 03:06:58;;;;;;;10.50;6.47;;;;;;;8.08;81.47;99300.53;6169236;23;20395;-95
2023/11/13 03:09:23;;;;;;;10.57;6.40;;;;;;;8.19;81.44;99315.63;6145000;23;20068;-95
2023/11/13 03:11:49;;;;;;;10.18;6.30;;;;;;;8.02;81.79;99288.94;6194411;23;20066;-96
2023/11/13 03:14:15;;;;;;;11.20;5.80;;;;;;;8.00;81.39;99288.38;6168846;23;20044;-95
2023/11/13 03:16:40;;;;;;;9.70;5.75;;;;;;;8.09;81.10;99294.09;6144612;23;20011;-95
2023/11/13 03:19:06;;;;;;;10.60;5.55;;;;;;;8.29;80.37;99315.75;6144131;23;20028;-96
2023/11/13 03:21:31;;;;;;;8.43;5.45;;;;;;;8.15;80.78;99286.91;6144446;23;20020;-95
2023/11/13 03:23:57;;;;;;;9.90;5.50;;;;;;;8.20;80.33;99298.50;6169266;23;20000;-96
2023/11/13 03:26:23;;;;;;;7.47;5.63;;;;;;;8.16;80.82;99292.03;6194778;23;20075;-96
2023/11/13 03:28:49;;;;;;;9.18;6.18;;;;;;;8.11;81.27;99294.66;6194994;23;19996;-95
2023/11/13 03:31:15;;;;;;;9.52;6.00;;;;;;;8.17;81.41;99307.03;6168722;23;20399;-96
2023/11/13 03:33:40;;;;;;;10.90;6.10;;;;;;;8.13;81.15;99284.47;6169507;23;20000;-96
2023/11/13 03:36:06;;;;;;;7.75;5.93;;;;;;;8.19;81.02;99296.88;6169389;23;20463;-96
2023/11/13 03:38:34;;;;;;;10.93;6.78;;;;;;;8.18;80.92;99300.63;6177741;23;20047;-95
2023/11/13 03:41:01;;;;;;;9.13;5.60;;;;;;;8.14;81.56;99293.34;6193859;23;20050;-95
2023/11/13 03:43:27;;;;;;;8.20;5.47;;;;;;;8.33;81.56;99339.38;6193869;23;20020;-96
2023/11/13 03:45:52;;;;;;;7.15;5.18;;;;;;;8.08;82.37;99333.50;6194114;23;20016;-96
2023/11/13 03:48:18;;;;;;;8.02;5.43;;;;;;;7.95;82.73;99333.94;6167994;23;20072;-96
2023/11/13 03:50:44;;;;;;;6.53;4.70;;;;;;;7.92;82.40;99336.28;6193373;23;20020;-94
2023/11/13 03:53:09;;;;;;;8.80;5.82;;;;;;;7.86;82.48;99325.53;6170108;23;20033;-96
2023/11/13 03:55:35;;;;;;;7.00;5.15;;;;;;;7.82;82.55;99316.38;6168532;23;20008;-94
2023/11/13 03:58:00;;;;;;;12.00;5.47;;;;;;;7.76;82.70;99316.53;6169705;23;20320;-95
2023/11/13 04:00:26;;;;;;;9.75;6.18;;;;;;;7.66;83.13;99309.22;6169551;23;20084;-96
2023/11/13 04:02:51;;;;;;;9.18;5.72;;;;;;;7.67;83.43;99318.84;6195368;23;20000;-95
2023/11/13 04:05:17;;;;;;;8.15;5.70;;;;;;;7.54;83.63;99303.19;6194488;23;20076;-96
2023/11/13 04:07:44;;;;;;;10.75;6.10;;;;;;;7.65;83.60;99331.69;6169728;23;20052;-96
2023/11/13 04:10:13;;;;;;;13.38;5.53;;;;;;;7.64;83.58;99338.13;6169636;23;20004;-95
2023/11/13 04:12:40;;;;;;;9.57;5.05;;;;;;;7.61;83.14;99343.97;6169836;23;20000;-96
2023/11/13 04:15:07;;;;;;;8.52;4.80;;;;;;;7.63;83.01;99336.50;6193317;23;20000;-96
2023/11/13 04:17:33;;;;;;;7.10;5.10;;;;;;;7.51;83.04;99331.25;6169078;23;20008;-95
2023/11/13 04:19:59;;;;;;;8.43;5.00;;;;;;;7.49;83.12;99331.53;6168656;23;20011;-94
2023/11/13 04:22:26;;;;;;;9.10;4.95;;;;;;;7.48;83.32;99329.09;6169086;23;20011;-94
2023/11/13 04:24:53;;;;;;;6.30;4.47;;;;;;;7.56;82.54;99328.66;6193001;23;20024;-96
2023/11/13 04:27:18;;;;;;;7.20;4.57;;;;;;;7.78;81.94;99358.13;6168448;23;20000;-94
2023/11/13 04:29:44;;;;;;;6.70;4.53;;;;;;;7.63;82.46;99342.66;6168557;23;20083;-93
2023/11/13 04:32:10;;;;;;;8.07;4.88;;;;;;;7.47;82.97;99327.44;6168967;23;20024;-95
2023/11/13 04:34:36;;;;;;;6.25;4.90;;;;;;;7.56;83.30;99342.06;6167853;23;20083;-94
2023/11/13 04:37:02;;;;;;;7.63;5.50;;;;;;;7.40;83.27;99311.56;6192400;23;20066;-95
2023/11/13 04:39:28;;;;;;;9.55;5.40;;;;;;;7.67;83.00;99359.84;6168246;23;20375;-94
2023/11/13 04:41:54;;;;;;;8.23;5.18;;;;;;;7.63;83.52;99358.75;6169961;23;20000;-95
2023/11/13 04:44:20;;;;;;;8.23;5.20;;;;;;;7.44;83.68;99339.47;6170151;23;19999;-94
2023/11/13 04:46:46;;;;;;;9.10;5.45;;;;;;;7.41;83.46;99344.56;6169872;23;20032;-94
2023/11/13 04:49:14;;;;;;;11.32;4.93;;;;;;;7.35;83.57;99338.31;6195169;23;20061;-95
2023/11/13 04:51:43;;;;;;;10.02;5.00;;;;;;;7.38;83.25;99321.72;6194327;23;20084;-94
2023/11/13 04:54:09;;;;;;;7.20;4.70;;;;;;;7.55;83.23;99351.13;6194144;23;20039;-92
2023/11/13 04:56:34;;;;;;;17.83;6.03;;;;;;;7.36;83.70;99318.47;6168433;23;20055;-93
2023/11/13 04:59:00;;;;;;;9.80;7.93;;;;;;;7.52;84.00;99354.31;6169128;23;20004;-95
2023/11/13 05:01:26;;;;;;;13.45;6.90;;;;;;;7.62;84.00;99367.84;6194916;23;20012;-95
2023/11/13 05:03:54;;;;;;;9.40;5.55;;;;;;;7.58;83.55;99364.03;6193963;23;19993;-94
2023/11/13 05:06:20;;;;;;;10.07;5.65;;;;;;;7.53;83.84;99352.44;6171718;23;20039;-95
2023/11/13 05:08:50;;;;;;;10.52;6.10;;;;;;;7.53;84.31;99358.59;6172714;23;20040;-94
2023/11/13 05:11:27;;;;;;;9.87;6.47;;;;;;;7.62;84.26;99361.69;6196864;23;20071;-96
2023/11/13 05:13:53;;;;;;;10.05;5.78;;;;;;;7.40;84.46;99334.88;6171590;23;20028;-96
2023/11/13 05:16:21;;;;;;;9.77;5.55;;;;;;;7.56;83.87;99347.41;6202104;23;20000;-95
2023/11/13 05:18:47;;;;;;;11.75;6.40;;;;;;;7.81;83.33;99371.03;6196737;23;20005;-94
2023/11/13 05:21:16;;;;;;;10.60;7.88;;;;;;;7.59;83.92;99341.53;6179714;23;20004;-96
2023/11/13 05:23:42;;;;;;;12.13;6.90;;;;;;;7.65;84.08;99353.94;6199732;23;20030;-94
2023/11/13 05:26:07;;;;;;;13.20;7.38;;;;;;;7.75;83.40;99365.84;6171933;23;20000;-96
2023/11/13 05:28:33;;;;;;;17.00;8.85;;;;;;;7.84;83.31;99369.69;6170328;23;20005;-94
2023/11/13 05:30:59;;;;;;;15.60;9.13;;;;;;;7.73;82.77;99360.75;6171117;23;20139;-92
2023/11/13 05:33:25;;;;;;;19.67;9.13;;;;;;;7.83;82.47;99357.38;6172734;23;20072;-96
2023/11/13 05:35:53;;;;;;;16.45;9.95;;;;;;;7.75;82.35;99355.94;6169691;23;20451;-96
2023/11/13 05:38:21;;;;;;;15.70;10.13;;;;;;;7.97;82.01;99393.47;6171805;23;20009;-95
2023/11/13 05:40:46;;;;;;;16.17;10.13;;;;;;;8.08;81.81;99411.28;6199582;23;20027;-95
2023/11/13 05:43:12;;;;;;;29.35;12.45;;;;;;;8.14;80.81;99406.00;6196656;23;19996;-95
2023/11/13 05:45:47;;;;;;;32.08;15.45;;;;;;;8.08;81.35;99394.38;6205438;23;20076;-96
2023/11/13 05:48:16;;;;;;;26.42;14.50;;;;;;;8.25;80.41;99421.13;6233276;23;20000;-96
2023/11/13 05:50:42;;;;;;;27.45;15.18;;;;;;;8.21;80.06;99420.00;6180759;23;20071;-96
2023/11/13 05:56:29;;;;;;;34.05;16.73;;;;;;;8.21;80.70;99441.47;6227372;23;20007;-94
2023/11/13 05:59:12;;;;;;;18.55;12.38;;;;;;;8.30;80.88;99464.91;6175208;23;20004;-96
2023/11/13 06:01:44;;;;;;;20.13;9.30;;;;;;;8.09;80.72;99449.63;6197324;23;20000;-92
2023/11/13 06:04:13;;;;;;;14.90;9.77;;;;;;;8.09;80.66;99460.34;6195895;23;19993;-89
2023/11/13 06:06:41;;;;;;;14.27;9.63;;;;;;;8.31;80.76;99479.13;6173393;23;19981;-90
2023/11/13 06:09:11;;;;;;;15.38;9.63;;;;;;;8.18;80.44;99444.66;6196258;23;20005;-90
2023/11/13 06:11:37;;;;;;;19.33;9.80;;;;;;;8.29;80.35;99449.06;6167231;23;20001;-91
2023/11/13 06:14:05;;;;;;;16.40;9.50;;;;;;;8.27;80.75;99443.13;6170639;23;20285;-92
2023/11/13 06:16:32;;;;;;;11.65;7.72;;;;;;;8.41;80.41;99478.47;6168727;23;20001;-90
2023/11/13 06:18:59;;;;;;;13.63;8.57;;;;;;;8.52;79.83;99484.75;6169137;23;20000;-90
2023/11/13 06:21:58;;;;;;;13.88;7.07;;;;;;;8.56;80.00;99491.25;6167361;23;20000;-94
2023/11/13 06:24:27;;;;;;;12.35;7.65;;;;;;;8.32;78.74;99456.59;6171383;23;20447;-93
2023/11/13 06:26:53;;;;;;;10.32;6.47;;;;;;;8.37;79.48;99480.81;6194349;23;20000;-95
2023/11/13 06:29:19;;;;;;;11.32;7.53;;;;;;;8.45;79.09;99484.97;6221319;23;20071;-95
2023/11/13 06:31:44;;;;;;;11.38;8.38;;;;;;;8.52;79.05;99476.72;6196361;23;20000;-95
2023/11/13 06:34:13;;;;;;;12.73;7.70;;;;;;;8.41;78.46;99448.97;6169303;23;20036;-93
2023/11/13 06:36:45;;;;;;;9.82;6.28;;;;;;;8.62;78.13;99466.88;6197301;23;19996;-95
2023/11/13 06:39:14;;;;;;;12.75;9.10;;;;;;;8.70;77.84;99473.69;6190512;23;20021;-93
2023/11/13 06:41:39;;;;;;;15.63;8.27;;;;;;;8.64;78.18;99464.75;6166362;23;20007;-93
2023/11/13 06:44:07;;;;;;;14.82;9.05;;;;;;;8.79;77.76;99480.19;6142472;23;20028;-94
2023/11/13 06:46:36;;;;;;;14.85;9.30;;;;;;;8.93;78.17;99485.97;6139112;23;20005;-94
2023/11/13 06:49:02;;;;;;;13.60;8.43;;;;;;;9.03;78.21;99483.38;6143550;23;20008;-94
2023/11/13 06:51:27;;;;;;;14.98;8.23;;;;;;;8.99;79.00;99495.69;6139124;23;20094;-93
2023/11/13 06:53:54;;;;;;;15.95;9.55;;;;;;;8.93;77.63;99477.91;6195443;23;20032;-95
2023/11/13 06:56:22;;;;;;;12.13;7.78;;;;;;;9.05;77.34;99481.25;6195226;23;20005;-93
2023/11/13 06:58:49;;;;;;;13.23;6.75;;;;;;;9.06;76.14;99472.13;6167525;23;20368;-93
2023/11/13 07:01:15;;;;;;;13.88;7.63;;;;;;;9.24;77.35;99497.78;6145115;23;19997;-94
2023/11/13 07:03:41;;;;;;;15.70;8.77;;;;;;;9.39;76.81;99490.91;6139802;23;20001;-93
2023/11/13 07:06:10;;;;;;;24.17;14.35;;;;;;;9.27;77.02;99461.53;6139584;23;20004;-95
2023/11/13 07:12:15;;;;;;;193.02;81.65;;;;;;;9.48;75.24;99466.00;6190355;23;20127;-94
2023/11/13 07:15:37;;;;;;;19.63;12.90;;;;;;;9.62;75.11;99487.84;6168484;23;20013;-94
2023/11/13 07:18:04;;;;;;;36.37;21.00;;;;;;;9.46;74.90;99460.06;6191604;23;20008;-95
2023/11/13 07:20:34;;;;;;;26.05;16.63;;;;;;;9.48;75.30;99459.78;6143830;23;20491;-94
2023/11/13 07:23:04;;;;;;;17.75;9.70;;;;;;;9.80;75.59;99489.31;6163357;23;20063;-95
2023/11/13 07:25:58;;;;;;;12.57;8.45;;;;;;;9.63;76.14;99467.97;6144025;23;20013;-96
2023/11/13 07:28:37;;;;;;;19.42;9.90;;;;;;;9.74;76.93;99474.22;6198733;23;19997;-96
2023/11/13 07:31:07;;;;;;;24.10;11.73;;;;;;;9.84;76.12;99460.03;6149555;23;20001;-95
2023/11/13 07:34:20;;;;;;;18.95;10.38;;;;;;;9.84;75.13;99454.63;6198707;23;20005;-95
2023/11/13 07:36:59;;;;;;;;;;;;;;;;;;;;;
2023/11/13 07:39:31;;;;;;;24.63;10.98;;;;;;;9.85;75.12;99472.38;6137038;23;20515;-95
2023/11/13 07:42:17;;;;;;;;;;;;;;;9.98;74.91;99479.16;6164734;23;20016;-94
2023/11/13 07:44:52;;;;;;;16.23;10.60;;;;;;;9.88;74.90;99453.84;6195798;23;20418;-95
2023/11/13 07:47:18;;;;;;;18.80;9.98;;;;;;;9.88;74.38;99461.91;6191262;23;20339;-95
2023/11/13 07:50:04;;;;;;;18.05;10.23;;;;;;;10.09;74.65;99470.09;6168369;23;20024;-94
2023/11/13 07:52:50;;;;;;;18.80;10.93;;;;;;;10.06;74.84;99452.56;6147664;23;20012;-95
2023/11/13 07:55:32;;;;;;;;;;;;;;;;;;;;;
2023/11/13 07:58:04;;;;;;;22.30;10.40;;;;;;;10.18;74.32;99457.72;6174120;23;20017;-95
2023/11/13 08:00:44;;;;;;;;;;;;;;;;;;;;;
2023/11/13 08:03:13;;;;;;;18.48;10.38;;;;;;;10.34;73.87;99471.28;6170655;23;20032;-95
2023/11/13 08:05:39;;;;;;;22.15;10.35;;;;;;;10.27;74.40;99484.94;6142542;23;20008;-92
2023/11/13 08:08:14;;;;;;;17.77;11.55;;;;;;;10.06;74.07;99463.31;6137879;23;19997;-93
2023/11/13 08:10:46;;;;;;;61.30;29.45;;;;;;;10.07;73.55;99454.19;6144350;23;20005;-95
2023/11/13 08:13:15;;;;;;;59.55;33.50;;;;;;;10.31;74.30;99478.81;6168509;23;20103;-95
2023/11/13 08:15:50;;;;;;;47.47;27.00;;;;;;;10.29;73.75;99458.56;6167761;23;20001;-96
2023/11/13 08:18:22;;;;;;;18.73;9.93;;;;;;;10.47;73.01;99458.13;6147743;23;19996;-95
2023/11/13 08:20:48;;;;;;;;;;;;;;;10.61;73.06;99466.50;6145869;23;20001;-95
2023/11/13 08:23:14;;;;;;;20.77;12.63;;;;;;;10.57;72.16;99451.16;6177625;23;19911;-94
2023/11/13 08:34:19;;;;;;;16.08;7.45;;;;;;;11.18;69.70;99440.41;6227931;22;20031;-96
2023/11/13 08:37:34;;;;;;;;;;;;;;;;;;;;;
2023/11/13 08:40:28;;;;;;;;;;;;;;;11.59;68.73;99451.13;6240325;23;20044;-96
2023/11/13 08:48:35;;;;;;;25.50;15.23;;;;;;;11.50;67.19;99421.22;6213970;22;20042;-95
2023/11/13 08:51:07;;;;;;;19.67;12.15;;;;;;;11.49;66.62;99424.19;6165925;23;20012;-95
2023/11/13 08:54:41;;;;;;;30.13;16.52;;;;;;;11.97;66.22;99448.88;6118831;23;20038;-96
2023/11/13 08:57:15;;;;;;;26.83;14.15;;;;;;;12.02;66.17;99424.59;6101831;23;20010;-94
2023/11/13 08:59:44;;;;;;;20.33;8.68;;;;;;;12.09;65.84;99413.50;6107118;23;20420;-95
2023/11/13 09:02:25;;;;;;;13.82;7.90;;;;;;;12.27;64.74;99420.16;6060157;23;20139;-93
2023/11/13 09:05:02;;;;;;;17.83;8.85;;;;;;;12.52;64.27;99430.81;6091707;23;20006;-94
2023/11/13 09:11:31;;;;;;;17.48;8.82;;;;;;;13.27;61.98;99439.69;6015154;23;20137;-96
2023/11/13 09:13:56;;;;;;;9.82;6.50;;;;;;;13.35;61.50;99428.31;6042552;23;20355;-95
2023/11/13 09:16:28;;;;;;;12.55;5.53;;;;;;;13.57;58.32;99418.88;6028040;23;20010;-96
2023/11/13 09:19:07;;;;;;;9.60;5.20;;;;;;;13.44;57.72;99407.63;6032669;23;20015;-95
2023/11/13 09:21:36;;;;;;;21.17;13.25;;;;;;;13.50;59.00;99416.50;6032588;23;20010;-93
2023/11/13 09:24:02;;;;;;;10.57;7.47;;;;;;;13.41;58.66;99419.03;6060611;23;20002;-94
2023/11/13 09:26:41;;;;;;;;;;;;;;;;;;;;;
2023/11/13 09:29:08;;;;;;;14.38;5.40;;;;;;;13.58;56.63;99402.38;6176153;23;20043;-94
2023/11/13 09:31:37;;;;;;;9.77;4.93;;;;;;;13.73;55.79;99420.31;6171232;23;20005;-96
2023/11/13 09:34:07;;;;;;;18.05;7.05;;;;;;;13.56;57.35;99407.25;6146168;23;20087;-96
2023/11/13 09:36:44;;;;;;;6.53;3.88;;;;;;;13.53;56.44;99392.41;6176021;23;20008;-94
2023/11/13 09:39:36;;;;;;;11.43;6.38;;;;;;;13.46;55.52;99391.94;6201863;23;20056;-96
2023/11/13 09:42:42;;;;;;;;;;;;;;;;;;;;;
2023/11/13 09:45:33;;;;;;;4.32;3.00;;;;;;;13.48;53.25;99403.28;6191706;22;20514;-95
2023/11/13 09:48:05;;;;;;;4.85;2.92;;;;;;;13.47;53.60;99400.88;6123357;23;20005;-93
2023/11/13 09:54:41;;;;;;;7.25;3.13;;;;;;;13.63;54.38;99401.50;6081574;23;20018;-95
2023/11/13 09:57:53;;;;;;;9.45;3.47;;;;;;;13.42;53.31;99374.66;6083507;23;20006;-96
2023/11/13 10:00:32;;;;;;;11.63;7.22;;;;;;;13.52;52.54;99393.50;6026699;23;20071;-96
2023/11/13 10:06:35;;;;;;;;;;;;;;;13.63;47.58;99399.59;6089655;23;20014;-95
2023/11/13 10:09:15;;;;;;;3.20;1.80;;;;;;;13.64;49.33;99386.88;6101352;23;19913;-93
2023/11/13 10:11:54;;;;;;;11.30;3.60;;;;;;;13.83;50.43;99400.47;6152173;23;20005;-94
2023/11/13 10:14:41;;;;;;;6.80;3.35;;;;;;;13.69;50.25;99365.16;6140937;23;20013;-92
2023/11/13 10:17:42;;;;;;;4.70;2.75;;;;;;;13.76;49.94;99360.22;6146086;23;20001;-96
2023/11/13 10:20:19;;;;;;;6.85;2.58;;;;;;;13.82;49.25;99358.25;6168260;23;20377;-96
2023/11/13 10:23:08;;;;;;;3.28;2.15;;;;;;;13.99;49.60;99391.06;6144327;23;20001;-95
2023/11/13 10:26:15;;;;;;;6.30;2.35;;;;;;;14.04;49.16;99387.47;6165941;23;20091;-93
2023/11/13 10:29:14;;;;;;;;;;;;;;;;;;;;;
2023/11/13 10:32:07;;;;;;;3.33;2.10;;;;;;;13.79;49.67;99373.16;6075852;23;20077;-96
2023/11/13 10:35:14;;;;;;;;;;;;;;;;;;;;;
2023/11/13 10:37:29;;;;;;;2.60;1.65;;;;;;;13.60;49.38;99359.59;6165998;23;20005;-92
2023/11/13 10:40:08;;;;;;;;;;;;;;;;;;;;;
2023/11/13 10:43:07;;;;;;;3.35;2.45;;;;;;;13.74;49.24;99384.88;6144725;23;20158;-94
2023/11/13 10:46:29;;;;;;;;;;;;;;;;;;;;;
2023/11/13 10:50:19;;;;;;;3.85;1.90;;;;;;;13.58;49.46;99359.06;6087358;23;20015;-96
2023/11/13 10:53:29;;;;;;;9.13;4.13;;;;;;;13.69;48.76;99367.88;5951625;24;20005;-96
2023/11/13 10:56:45;;;;;;;4.68;2.42;;;;;;;14.04;49.02;99409.94;5990505;24;20040;-95
2023/11/13 10:59:53;;;;;;;6.30;2.70;;;;;;;13.90;47.90;99390.91;5975963;24;20080;-95
2023/11/13 11:13:09;;;;;;;4.18;2.25;;;;;;;13.42;50.60;99398.22;5939349;24;20257;-96
2023/11/13 11:15:56;;;;;;;2.70;1.52;;;;;;;13.41;50.89;99405.53;5950994;24;20013;-95
2023/11/13 11:19:43;;;;;;;;;;;;;;;;;;;;;
2023/11/13 11:22:38;;;;;;;;;;;;;;;;;;;;;
2023/11/13 11:25:46;;;;;;;;;;;;;;;;;;;;;
2023/11/13 11:56:07;;;;;;;2.75;1.58;;;;;;;12.63;48.57;99369.41;6089763;23;20094;-95
2023/11/13 11:58:35;;;;;;;3.95;1.67;;;;;;;12.60;48.67;99361.88;6186002;23;20403;-92
2023/11/13 12:04:23;;;;;;;;;;;;;;;;;;;;;
2023/11/13 12:07:14;;;;;;;;;;;;;;;;;;;;;
2023/11/13 12:10:11;;;;;;;;;;;;;;;;;;;;;
2023/11/13 12:16:02;;;;;;;5.57;1.23;;;;;;;12.50;46.47;99354.66;6142269;23;20028;-96
2023/11/13 12:18:46;;;;;;;3.72;1.27;;;;;;;12.55;46.20;99348.41;6186530;23;20340;-96
2023/11/13 12:21:29;;;;;;;16.27;9.50;;;;;;;12.83;46.79;99379.25;6146661;23;20008;-95
2023/11/13 12:24:06;;;;;;;5.20;2.00;;;;;;;12.68;46.86;99355.88;6167436;23;19997;-94
2023/11/13 12:27:13;;;;;;;2.78;1.50;;;;;;;12.74;46.84;99380.94;6148181;23;20005;-96
2023/11/13 12:30:16;;;;;;;;;;;;;;;;;;;;;
2023/11/13 12:33:10;;;;;;;10.02;6.53;;;;;;;12.61;48.13;99366.19;6190054;23;20032;-95
2023/11/13 12:36:34;;;;;;;;;;;;;;;;;;;;;
2023/11/13 12:39:14;;;;;;;3.42;1.45;;;;;;;12.61;47.26;99371.59;6189579;23;20005;-96
2023/11/13 12:41:58;;;;;;;;;;;;;;;;;;;;;
2023/11/13 12:44:52;;;;;;;2.10;1.10;;;;;;;12.62;46.36;99378.63;6136715;23;20017;-95
2023/11/13 12:47:27;;;;;;;2.95;1.15;;;;;;;12.52;47.16;99354.38;6134263;23;20068;-93
2023/11/13 13:22:06;;;;;;;2.88;1.40;;;;;;;12.62;49.02;99350.81;5933537;23;20008;-96
2023/11/13 13:24:32;;;;;;;2.10;1.30;;;;;;;12.47;49.68;99357.09;5910071;24;20024;-92
2023/11/13 13:26:58;;;;;;;2.42;1.30;;;;;;;12.44;49.94;99360.38;6014785;23;20006;-94
2023/11/13 13:29:51;;;;;;;3.97;1.88;;;;;;;12.55;50.02;99361.91;6119649;23;20074;-96
2023/11/13 13:49:46;;;;;;;;;;;;;;;;;;;;;
2023/11/13 13:53:11;;;;;;;;;;;;;;;;;;;;;
2023/11/13 14:02:52;;;;;;;;;;;;;;;;;;;;;
2023/11/13 14:06:13;;;;;;;;;;;;;;;;;;;;;
2023/11/13 14:12:04;;;;;;;3.78;1.55;;;;;;;12.24;47.83;99337.03;6005116;23;20004;-95
2023/11/13 14:29:03;;;;;;;;;;;;;;;;;;;;;
2023/11/13 14:31:55;;;;;;;3.35;1.15;;;;;;;12.12;48.05;99361.69;5797942;24;20093;-93
2023/11/13 14:34:38;;;;;;;3.20;1.30;;;;;;;11.97;48.67;99332.84;5905948;24;19993;-96
2023/11/13 14:37:08;;;;;;;2.08;1.20;;;;;;;12.05;48.92;99364.66;5997179;23;20007;-95
2023/11/13 14:39:37;;;;;;;6.78;2.25;;;;;;;11.91;49.54;99352.84;5992807;23;20003;-94
2023/11/13 14:42:07;;;;;;;6.63;2.55;;;;;;;11.95;49.52;99361.22;6016870;23;20047;-95
2023/11/13 14:44:33;;;;;;;5.80;2.00;;;;;;;11.97;48.87;99375.22;6019254;23;20035;-92
2023/11/13 14:47:03;;;;;;;2.70;1.50;;;;;;;11.82;48.61;99366.09;6017963;23;20015;-96
2023/11/13 14:49:45;;;;;;;5.55;2.15;;;;;;;11.78;48.70;99362.34;5994344;23;20088;-93
2023/11/13 14:52:12;;;;;;;6.97;2.53;;;;;;;11.75;48.97;99368.28;6065040;23;20472;-93
2023/11/13 14:55:05;;;;;;;4.65;2.85;;;;;;;11.76;50.40;99378.00;6055581;23;20036;-93
2023/11/13 14:57:37;;;;;;;13.32;4.90;;;;;;;11.64;51.21;99369.41;6068660;23;20002;-94
2023/11/13 15:00:26;;;;;;;7.93;4.50;;;;;;;11.65;50.87;99371.03;6084063;23;20009;-93
2023/11/13 15:02:53;;;;;;;7.82;4.75;;;;;;;11.49;50.79;99352.19;6108554;23;20440;-94
2023/11/13 15:05:50;;;;;;;54.55;20.60;;;;;;;11.55;50.34;99355.69;6137466;23;20001;-95
2023/11/13 15:08:16;;;;;;;42.63;16.52;;;;;;;11.59;50.14;99361.34;6201133;23;20084;-93